createdAt,value
2019-03-01T00:05:10.405Z,100353.51
2019-03-01T00:08:18.800Z,100353.64
2019-03-01T00:15:01.764Z,100353.52
2019-03-01T00:18:02.424Z,100350.52
2019-03-01T00:21:12.223Z,100341.79
2019-03-01T00:24:39.766Z,100339.26
2019-03-01T00:28:07.305Z,100338.93
2019-03-01T00:31:17.022Z,100346.16
2019-03-01T00:34:17.675Z,100336.41
2019-03-01T00:37:45.221Z,100340.09
2019-03-01T00:40:54.970Z,100338.81
2019-03-01T00:44:04.783Z,100332.47
2019-03-01T00:46:53.676Z,100328.10
2019-03-01T00:49:42.678Z,100323.17
2019-03-01T00:52:31.501Z,100324.55
2019-03-01T00:55:20.304Z,100324.33
2019-03-01T00:58:09.231Z,100322.13
2019-03-01T01:00:58.015Z,100322.94
2019-03-01T01:03:46.887Z,100314.44
2019-03-01T01:06:35.684Z,100318.58
2019-03-01T01:09:24.594Z,100310.06
2019-03-01T01:12:13.471Z,100300.19
2019-03-01T01:15:02.320Z,100291.67
2019-03-01T01:17:51.168Z,100278.68
2019-03-01T01:20:40.015Z,100293.05
2019-03-01T01:23:09.497Z,100292.59
2019-03-01T01:25:38.980Z,100284.32
2019-03-01T01:28:08.526Z,100282.48
2019-03-01T01:30:38.015Z,100284.42
2019-03-01T01:33:07.495Z,100280.28
2019-03-01T01:35:37.049Z,100272.83
2019-03-01T01:38:06.544Z,100279.72
2019-03-01T01:40:36.043Z,100272.83
2019-03-01T01:43:05.530Z,100275.00
2019-03-01T01:45:34.990Z,100271.08
2019-03-01T01:48:04.486Z,100269.14
2019-03-01T01:50:33.979Z,100264.64
2019-03-01T01:53:03.460Z,100264.78
2019-03-01T01:55:32.944Z,100259.48
2019-03-01T01:58:02.418Z,100256.73
2019-03-01T02:00:31.981Z,100248.45
2019-03-01T02:03:01.468Z,100248.23
2019-03-01T02:05:30.949Z,100252.14
2019-03-01T02:08:00.414Z,100244.42
2019-03-01T02:10:29.983Z,100243.63
2019-03-01T02:12:59.441Z,100241.20
2019-03-01T02:15:29.072Z,100241.56
2019-03-01T02:17:58.539Z,100239.37
2019-03-01T02:20:28.029Z,100241.56
2019-03-01T02:22:57.567Z,100243.50
2019-03-01T02:25:27.051Z,100247.64
2019-03-01T02:27:56.524Z,100230.30
2019-03-01T02:30:39.311Z,100225.02
2019-03-01T02:33:08.780Z,100223.41
2019-03-01T02:35:38.288Z,100218.68
2019-03-01T02:38:07.843Z,100220.88
2019-03-01T02:40:37.691Z,100215.92
2019-03-01T02:43:07.476Z,100211.22
2019-03-01T02:45:36.984Z,100215.59
2019-03-01T02:48:06.584Z,100206.49
2019-03-01T02:50:36.060Z,100204.55
2019-03-01T02:53:05.624Z,100200.97
2019-03-01T02:55:35.079Z,100197.43
2019-03-01T02:58:04.582Z,100191.91
2019-03-01T03:00:34.206Z,100191.91
2019-03-01T03:03:03.701Z,100200.19
2019-03-01T03:05:34.831Z,100202.02
2019-03-01T03:08:09.021Z,100191.77
2019-03-01T03:10:38.580Z,100186.03
2019-03-01T03:13:08.807Z,100185.47
2019-03-01T03:15:39.948Z,100182.71
2019-03-01T03:18:09.426Z,100181.89
2019-03-01T03:20:38.888Z,100178.34
2019-03-01T03:23:08.436Z,100182.25
2019-03-01T03:25:37.936Z,100180.88
2019-03-01T03:28:07.419Z,100179.27
2019-03-01T03:30:36.974Z,100181.66
2019-03-01T03:33:06.463Z,100175.59
2019-03-01T03:35:35.945Z,100173.05
2019-03-01T03:38:05.972Z,100174.66
2019-03-01T03:40:35.435Z,100172.69
2019-03-01T03:43:05.016Z,100168.78
2019-03-01T03:45:34.568Z,100168.22
2019-03-01T03:48:04.331Z,100166.84
2019-03-01T03:50:33.872Z,100168.78
2019-03-01T03:53:03.345Z,100164.64
2019-03-01T03:55:33.091Z,100165.23
2019-03-01T03:58:02.654Z,100169.37
2019-03-01T04:00:32.185Z,100165.80
2019-03-01T04:03:01.728Z,100166.39
2019-03-01T04:05:31.207Z,100166.39
2019-03-01T04:08:00.678Z,100168.33
2019-03-01T04:10:30.237Z,100165.94
2019-03-01T04:12:59.728Z,100165.34
2019-03-01T04:15:29.221Z,100164.55
2019-03-01T04:17:58.729Z,100171.67
2019-03-01T04:20:28.188Z,100165.94
2019-03-01T04:22:57.719Z,100167.53
2019-03-01T04:25:27.212Z,100166.39
2019-03-01T04:27:56.679Z,100156.28
2019-03-01T04:30:26.278Z,100158.22
2019-03-01T04:32:55.797Z,100160.41
2019-03-01T04:35:25.244Z,100154.67
2019-03-01T04:37:54.710Z,100151.45
2019-03-01T04:40:24.273Z,100152.16
2019-03-01T04:42:53.748Z,100148.58
2019-03-01T04:45:23.213Z,100149.73
2019-03-01T04:47:52.714Z,100146.19
2019-03-01T04:50:22.283Z,100145.36
2019-03-01T04:52:51.761Z,100145.14
2019-03-01T04:55:26.772Z,100139.06
2019-03-01T04:57:56.249Z,100136.08
2019-03-01T05:00:26.478Z,100142.97
2019-03-01T05:02:55.963Z,100145.73
2019-03-01T05:05:25.438Z,100145.73
2019-03-01T05:07:55.002Z,100141.36
2019-03-01T05:10:24.504Z,100138.84
2019-03-01T05:12:54.138Z,100141.92
2019-03-01T05:15:25.325Z,100138.38
2019-03-01T05:17:54.881Z,100145.27
2019-03-01T05:20:24.425Z,100148.03
2019-03-01T05:22:53.926Z,100145.50
2019-03-01T05:25:23.395Z,100149.97
2019-03-01T05:27:52.891Z,100151.91
2019-03-01T05:30:22.520Z,100156.05
2019-03-01T05:32:51.984Z,100156.05
2019-03-01T05:35:21.474Z,100155.27
2019-03-01T05:37:50.950Z,100156.97
2019-03-01T05:40:20.437Z,100160.32
2019-03-01T05:42:49.911Z,100160.66
2019-03-01T05:45:32.657Z,100160.66
2019-03-01T05:48:02.120Z,100168.92
2019-03-01T05:50:31.593Z,100171.69
2019-03-01T05:53:01.114Z,100174.44
2019-03-01T05:55:30.640Z,100177.43
2019-03-01T05:58:23.162Z,100172.14
2019-03-01T06:01:24.108Z,100177.09
2019-03-01T06:04:07.571Z,100180.42
2019-03-01T06:06:56.055Z,100182.61
2019-03-01T06:09:50.755Z,100176.28
2019-03-01T06:13:03.710Z,100185.38
2019-03-01T06:16:12.490Z,100196.96
2019-03-01T06:19:09.556Z,100194.34
2019-03-01T06:22:18.114Z,100195.49
2019-03-01T06:25:22.782Z,100191.69
2019-03-01T06:28:14.947Z,100198.12
2019-03-01T06:31:19.702Z,100201.47
2019-03-01T06:34:11.960Z,100200.66
2019-03-01T06:37:13.202Z,100204.56
2019-03-01T06:40:20.318Z,100211.23
2019-03-01T06:43:26.396Z,100207.67
2019-03-01T06:46:18.122Z,100213.98
2019-03-01T06:48:49.247Z,100215.72
2019-03-01T06:51:28.767Z,100207.22
2019-03-01T06:53:54.073Z,100209.16
2019-03-01T06:56:23.577Z,100206.99
2019-03-01T06:58:53.402Z,100211.36
2019-03-01T07:01:23.711Z,100221.80
2019-03-01T07:03:54.154Z,100218.81
2019-03-01T07:06:23.782Z,100216.41
2019-03-01T07:08:53.287Z,100221.11
2019-03-01T07:11:22.783Z,100220.66
2019-03-01T07:13:52.259Z,100221.34
2019-03-01T07:16:21.793Z,100229.16
2019-03-01T07:18:51.256Z,100230.30
2019-03-01T07:21:20.733Z,100241.92
2019-03-01T07:24:09.719Z,100236.73
2019-03-01T07:26:58.579Z,100243.63
2019-03-01T07:29:47.481Z,100242.58
2019-03-01T07:32:36.345Z,100247.08
2019-03-01T07:35:25.274Z,100259.48
2019-03-01T07:38:07.320Z,100255.11
2019-03-01T07:40:56.239Z,100261.77
2019-03-01T07:43:45.070Z,100267.98
2019-03-01T07:46:33.917Z,100266.34
2019-03-01T07:49:22.759Z,100210.91
2019-03-01T07:52:11.689Z,100271.84
2019-03-01T07:55:00.650Z,100271.26
2019-03-01T07:57:50.533Z,100279.23
2019-03-01T08:00:40.188Z,100276.25
2019-03-01T08:03:29.027Z,100281.98
2019-03-01T08:06:17.921Z,100291.28
2019-03-01T08:09:27.768Z,100292.56
2019-03-01T08:12:16.673Z,100294.40
2019-03-01T08:15:26.501Z,100299.45
2019-03-01T08:18:15.361Z,100302.67
2019-03-01T08:21:06.471Z,100307.86
2019-03-01T08:23:54.900Z,100308.88
2019-03-01T08:26:43.825Z,100316.59
2019-03-01T08:29:25.253Z,100319.91
2019-03-01T08:32:14.128Z,100318.53
2019-03-01T08:35:05.145Z,100324.73
2019-03-01T08:37:54.356Z,100332.55
2019-03-01T08:40:46.597Z,100331.29
2019-03-01T08:43:35.844Z,100343.70
2019-03-01T08:46:26.859Z,100346.09
2019-03-01T08:49:16.079Z,100342.13
2019-03-01T08:51:58.565Z,100353.62
2019-03-01T08:54:46.526Z,100365.55
2019-03-01T08:57:44.022Z,100363.25
2019-03-01T09:00:46.942Z,100358.19
2019-03-01T09:03:56.673Z,100359.09
2019-03-01T09:06:45.520Z,100357.67
2019-03-01T09:09:34.430Z,100355.41
2019-03-01T09:12:23.263Z,100287.72
2019-03-01T09:15:33.080Z,100378.56
2019-03-01T09:18:21.893Z,100386.84
2019-03-01T09:21:12.875Z,100387.98
2019-03-01T09:24:01.510Z,100387.19
2019-03-01T09:26:51.639Z,100397.16
2019-03-01T09:29:42.206Z,100399.13
2019-03-01T09:32:33.902Z,100406.33
2019-03-01T09:35:43.144Z,100407.48
2019-03-01T09:38:32.178Z,100424.92
2019-03-01T09:41:13.652Z,100426.97
2019-03-01T09:44:02.971Z,100434.21
2019-03-01T09:47:12.889Z,100436.11
2019-03-01T09:50:23.422Z,100441.59
2019-03-01T09:52:58.538Z,100367.36
2019-03-01T09:55:26.537Z,100445.18
2019-03-01T09:57:56.093Z,100445.38
2019-03-01T10:00:36.147Z,100442.59
2019-03-01T10:03:05.816Z,100452.42
2019-03-01T10:05:35.272Z,100467.48
2019-03-01T10:08:04.909Z,100471.81
2019-03-01T10:10:35.756Z,100469.25
2019-03-01T10:13:05.373Z,100469.67
2019-03-01T10:15:35.042Z,100477.80
2019-03-01T10:18:04.579Z,100472.14
2019-03-01T10:20:35.115Z,100480.50
2019-03-01T10:23:06.336Z,100500.08
2019-03-01T10:25:35.790Z,100501.30
2019-03-01T10:28:05.366Z,100496.80
2019-03-01T10:30:34.810Z,100503.75
2019-03-01T10:33:04.409Z,100498.12
2019-03-01T10:35:33.845Z,100502.80
2019-03-01T10:38:03.353Z,100505.66
2019-03-01T10:40:32.934Z,100505.73
2019-03-01T10:43:02.448Z,100507.69
2019-03-01T10:45:32.469Z,100508.83
2019-03-01T10:48:02.074Z,100515.70
2019-03-01T10:50:31.620Z,100528.56
2019-03-01T10:53:01.136Z,100526.71
2019-03-01T10:55:30.694Z,100528.64
2019-03-01T10:58:00.205Z,100535.86
2019-03-01T11:00:31.547Z,100533.11
2019-03-01T11:03:01.042Z,100539.74
2019-03-01T11:05:30.640Z,100546.38
2019-03-01T11:08:00.253Z,100547.52
2019-03-01T11:10:41.301Z,100552.20
2019-03-01T11:13:14.898Z,100544.59
2019-03-01T11:15:44.421Z,100545.25
2019-03-01T11:18:13.903Z,100540.58
2019-03-01T11:20:43.526Z,100554.05
2019-03-01T11:23:13.352Z,100550.52
2019-03-01T11:25:43.196Z,100555.19
2019-03-01T11:28:14.202Z,100557.62
2019-03-01T11:30:43.693Z,100564.16
2019-03-01T11:33:13.267Z,100558.90
2019-03-01T11:35:42.962Z,100564.09
2019-03-01T11:38:12.605Z,100564.58
2019-03-01T11:40:42.387Z,100560.69
2019-03-01T11:43:12.019Z,100567.02
2019-03-01T11:45:41.580Z,100574.69
2019-03-01T11:48:11.107Z,100576.64
2019-03-01T11:50:40.714Z,100578.02
2019-03-01T11:53:10.320Z,100574.13
2019-03-01T11:55:39.825Z,100579.87
2019-03-01T11:58:09.305Z,100579.87
2019-03-01T12:00:38.972Z,100575.98
2019-03-01T12:03:08.662Z,100585.20
2019-03-01T12:05:38.164Z,100573.61
2019-03-01T12:08:07.747Z,100581.31
2019-03-01T12:10:37.336Z,100581.55
2019-03-01T12:13:09.556Z,100577.67
2019-03-01T12:15:39.081Z,100583.89
2019-03-01T12:18:08.562Z,100588.81
2019-03-01T12:20:38.091Z,100582.75
2019-03-01T12:23:10.528Z,100580.24
2019-03-01T12:25:40.085Z,100583.72
2019-03-01T12:28:09.607Z,100584.20
2019-03-01T12:30:39.205Z,100579.72
2019-03-01T12:33:08.732Z,100586.29
2019-03-01T12:35:38.228Z,100589.28
2019-03-01T12:38:07.759Z,100591.69
2019-03-01T12:40:37.333Z,100597.20
2019-03-01T12:43:06.918Z,100596.64
2019-03-01T12:45:36.450Z,100591.14
2019-03-01T12:48:05.973Z,100598.33
2019-03-01T12:50:35.609Z,100594.20
2019-03-01T12:53:06.793Z,100609.84
2019-03-01T12:55:36.425Z,100602.14
2019-03-01T12:58:05.952Z,100617.77
2019-03-01T13:00:38.021Z,100612.84
2019-03-01T13:03:08.965Z,100620.75
2019-03-01T13:05:38.896Z,100622.38
2019-03-01T13:08:08.432Z,100626.26
2019-03-01T13:10:40.364Z,100619.62
2019-03-01T13:13:09.778Z,100622.06
2019-03-01T13:15:39.369Z,100629.49
2019-03-01T13:18:15.558Z,100633.06
2019-03-01T13:20:41.060Z,100632.72
2019-03-01T13:23:10.728Z,100626.09
2019-03-01T13:26:02.916Z,100627.94
2019-03-01T13:28:50.241Z,100624.29
2019-03-01T13:31:39.207Z,100624.77
2019-03-01T13:34:28.116Z,100622.26
2019-03-01T13:37:14.701Z,100622.73
2019-03-01T13:40:00.044Z,100620.47
2019-03-01T13:42:50.637Z,100620.94
2019-03-01T13:45:39.620Z,100569.00
2019-03-01T13:48:28.516Z,100626.38
2019-03-01T13:51:17.990Z,100629.92
2019-03-01T13:54:08.942Z,100635.91
2019-03-01T13:56:58.633Z,100637.05
2019-03-01T13:59:47.531Z,100642.07
2019-03-01T14:02:36.527Z,100622.44
2019-03-01T14:05:25.413Z,100644.34
2019-03-01T14:08:14.280Z,100656.48
2019-03-01T14:11:03.117Z,100652.12
2019-03-01T14:13:52.035Z,100652.70
2019-03-01T14:16:21.805Z,100655.77
2019-03-01T14:19:10.674Z,100657.80
2019-03-01T14:21:59.529Z,100660.08
2019-03-01T14:24:48.433Z,100666.81
2019-03-01T14:27:37.317Z,100650.79
2019-03-01T14:33:54.974Z,100653.87
2019-03-01T14:36:39.816Z,100677.75
2019-03-01T14:39:27.616Z,100680.67
2019-03-01T14:42:16.468Z,100687.38
2019-03-01T14:45:26.265Z,100681.73
2019-03-01T14:48:15.282Z,100683.52
2019-03-01T14:51:07.085Z,100679.56
2019-03-01T14:53:54.857Z,100684.55
2019-03-01T15:00:21.118Z,100684.47
2019-03-01T15:03:15.976Z,100694.50
2019-03-01T15:05:42.120Z,100695.38
2019-03-01T15:08:12.343Z,100698.78
2019-03-01T15:10:41.948Z,100709.36
2019-03-01T15:13:11.537Z,100714.68
2019-03-01T15:15:41.257Z,100721.95
2019-03-01T15:18:10.998Z,100719.02
2019-03-01T15:20:40.501Z,100724.38
2019-03-01T15:23:10.209Z,100729.93
2019-03-01T15:25:39.751Z,100740.44
2019-03-01T15:28:28.635Z,100746.33
2019-03-01T15:31:17.508Z,100753.30
2019-03-01T15:34:06.417Z,100696.73
2019-03-01T15:36:55.982Z,100757.56
2019-03-01T15:39:38.313Z,100759.33
2019-03-01T15:42:27.125Z,100711.41
2019-03-01T15:44:56.639Z,100760.09
2019-03-01T15:47:26.704Z,100768.17
2019-03-01T15:49:56.952Z,100765.23
2019-03-01T15:52:26.461Z,100768.61
2019-03-01T15:54:55.965Z,100774.99
2019-03-01T15:57:25.441Z,100777.00
2019-03-01T15:59:54.994Z,100774.00
2019-03-01T16:02:24.528Z,100776.84
2019-03-01T16:04:54.189Z,100787.58
2019-03-01T16:07:23.684Z,100792.25
2019-03-01T16:09:53.177Z,100801.12
2019-03-01T16:12:22.671Z,100793.81
2019-03-01T16:14:52.222Z,100796.31
2019-03-01T16:17:21.913Z,100796.39
2019-03-01T16:19:53.568Z,100803.89
2019-03-01T16:22:23.133Z,100802.82
2019-03-01T16:24:52.651Z,100803.40
2019-03-01T16:27:22.212Z,100804.52
2019-03-01T16:29:51.725Z,100805.66
2019-03-01T16:32:21.294Z,100820.76
2019-03-01T16:34:50.778Z,100821.63
2019-03-01T16:37:22.649Z,100821.39
2019-03-01T16:39:51.572Z,100821.39
2019-03-01T16:42:21.006Z,100824.63
2019-03-01T16:44:50.475Z,100829.87
2019-03-01T16:47:20.029Z,100830.37
2019-03-01T16:49:49.479Z,100835.03
2019-03-01T16:52:18.986Z,100837.48
2019-03-01T16:54:51.505Z,100848.72
2019-03-01T16:57:19.706Z,100844.59
2019-03-01T16:59:49.746Z,100843.23
2019-03-01T17:02:19.338Z,100857.20
2019-03-01T17:04:48.841Z,100858.88
2019-03-01T17:07:21.473Z,100857.75
2019-03-01T17:09:51.401Z,100861.08
2019-03-01T17:12:22.462Z,100863.25
2019-03-01T17:14:52.032Z,100859.95
2019-03-01T17:17:21.602Z,100862.95
2019-03-01T17:19:51.067Z,100868.44
2019-03-01T17:22:23.200Z,100870.61
2019-03-01T17:24:53.607Z,100868.69
2019-03-01T17:27:23.070Z,100870.06
2019-03-01T17:29:52.566Z,100869.73
2019-03-01T17:32:22.071Z,100871.36
2019-03-01T17:34:52.184Z,100875.98
2019-03-01T17:37:21.765Z,100862.81
2019-03-01T17:39:53.141Z,100866.36
2019-03-01T17:42:22.482Z,100868.56
2019-03-01T17:44:52.044Z,100863.31
2019-03-01T17:47:21.549Z,100867.44
2019-03-01T17:49:51.035Z,100871.56
2019-03-01T17:52:20.602Z,100864.94
2019-03-01T17:54:50.128Z,100862.44
2019-03-01T17:57:20.174Z,100868.23
2019-03-01T17:59:49.733Z,100874.22
2019-03-01T18:02:19.227Z,100874.80
2019-03-01T18:04:49.767Z,100882.16
2019-03-01T18:07:19.260Z,100882.16
2019-03-01T18:09:51.933Z,100883.54
2019-03-01T18:12:20.616Z,100891.48
2019-03-01T18:14:50.676Z,100891.20
2019-03-01T18:17:20.178Z,100879.17
2019-03-01T18:19:49.667Z,100886.59
2019-03-01T18:22:19.239Z,100891.03
2019-03-01T18:24:49.960Z,100892.70
2019-03-01T18:27:19.968Z,100896.58
2019-03-01T18:29:49.499Z,100908.14
2019-03-01T18:32:18.952Z,100905.94
2019-03-01T18:34:48.669Z,100902.95
2019-03-01T18:37:19.815Z,100914.77
2019-03-01T18:39:49.497Z,100914.77
2019-03-01T18:42:19.061Z,100914.27
2019-03-01T18:44:48.581Z,100915.93
2019-03-01T18:47:18.028Z,100923.67
2019-03-01T18:49:47.650Z,100918.51
2019-03-01T18:52:17.651Z,100923.75
2019-03-01T18:54:47.930Z,100917.43
2019-03-01T18:57:17.421Z,100915.02
2019-03-01T18:59:46.979Z,100918.88
2019-03-01T19:02:16.547Z,100919.13
2019-03-01T19:04:46.271Z,100923.55
2019-03-01T19:07:15.813Z,100925.50
2019-03-01T19:09:45.339Z,100924.38
2019-03-01T19:12:14.939Z,100928.25
2019-03-01T19:14:44.479Z,100926.62
2019-03-01T19:17:13.957Z,100933.48
2019-03-01T19:19:43.559Z,100934.53
2019-03-01T19:22:13.065Z,100933.98
2019-03-01T19:24:43.521Z,100930.42
2019-03-01T19:27:15.519Z,100935.11
2019-03-01T19:29:45.336Z,100935.11
2019-03-01T19:32:14.866Z,100937.61
2019-03-01T19:34:44.507Z,100941.73
2019-03-01T19:37:14.537Z,100941.48
2019-03-01T19:39:44.116Z,100941.23
2019-03-01T19:42:13.672Z,100948.34
2019-03-01T19:44:43.195Z,100949.47
2019-03-01T19:47:12.656Z,100942.59
2019-03-01T19:49:45.179Z,100942.59
2019-03-01T19:52:13.639Z,100942.59
2019-03-01T19:54:43.211Z,100939.61
2019-03-01T19:57:12.745Z,100935.48
2019-03-01T19:59:42.317Z,100942.34
2019-03-01T20:02:11.898Z,100939.86
2019-03-01T20:04:41.470Z,100939.86
2019-03-01T20:07:11.032Z,100948.89
2019-03-01T20:09:40.600Z,100957.95
2019-03-01T20:12:10.295Z,100952.47
2019-03-01T20:14:39.802Z,100949.72
2019-03-01T20:17:09.435Z,100952.47
2019-03-01T20:19:38.967Z,100953.84
2019-03-01T20:22:10.391Z,100955.46
2019-03-01T20:24:40.390Z,100951.13
2019-03-01T20:27:10.766Z,100945.34
2019-03-01T20:29:40.223Z,100945.64
2019-03-01T20:32:12.542Z,100950.34
2019-03-01T20:34:41.294Z,100953.09
2019-03-01T20:37:10.868Z,100956.70
2019-03-01T20:39:40.399Z,100954.80
2019-03-01T20:42:10.054Z,100947.68
2019-03-01T20:44:39.643Z,100947.18
2019-03-01T20:47:10.960Z,100946.93
2019-03-01T20:49:40.530Z,100949.67
2019-03-01T20:52:10.052Z,100947.25
2019-03-01T20:54:39.542Z,100951.66
2019-03-01T20:57:10.814Z,100946.75
2019-03-01T20:59:40.494Z,100939.93
2019-03-01T21:02:13.109Z,100940.18
2019-03-01T21:04:53.062Z,100938.56
2019-03-01T21:07:15.731Z,100941.30
2019-03-01T21:09:44.142Z,100942.38
2019-03-01T21:12:13.733Z,100944.55
2019-03-01T21:14:43.360Z,100944.01
2019-03-01T21:17:16.782Z,100948.38
2019-03-01T21:19:46.159Z,100949.50
2019-03-01T21:22:15.755Z,100955.78
2019-03-01T21:24:45.296Z,100962.10
2019-03-01T21:27:14.812Z,100965.39
2019-03-01T21:29:44.696Z,100967.34
2019-03-01T21:32:15.646Z,100967.34
2019-03-01T21:34:45.179Z,100967.34
2019-03-01T21:37:16.582Z,100965.39
2019-03-01T21:39:46.009Z,100965.14
2019-03-01T21:42:16.864Z,100959.11
2019-03-01T21:44:47.024Z,100959.41
2019-03-01T21:47:16.640Z,100964.59
2019-03-01T21:49:46.137Z,100967.89
2019-03-01T21:52:15.615Z,100968.14
2019-03-01T21:54:45.201Z,100969.52
2019-03-01T21:57:14.843Z,100966.77
2019-03-01T21:59:44.368Z,100962.91
2019-03-01T22:02:16.977Z,100962.65
2019-03-01T22:04:45.235Z,100963.48
2019-03-01T22:07:14.711Z,100959.91
2019-03-01T22:09:44.555Z,100954.41
2019-03-01T22:12:14.001Z,100955.78
2019-03-01T22:14:45.659Z,100959.91
2019-03-01T22:17:14.854Z,100967.02
2019-03-01T22:19:44.376Z,100960.41
2019-03-01T22:22:13.869Z,100962.03
2019-03-01T22:24:43.344Z,100973.27
2019-03-01T22:27:12.840Z,100971.89
2019-03-01T22:29:43.655Z,100974.64
2019-03-01T22:32:13.549Z,100978.76
2019-03-01T22:34:43.050Z,100974.64
2019-03-01T22:37:12.719Z,100978.76
2019-03-01T22:39:48.338Z,100980.13
2019-03-01T22:42:19.259Z,100974.64
2019-03-01T22:44:50.761Z,100978.50
2019-03-01T22:47:20.237Z,100971.64
2019-03-01T22:49:49.754Z,100974.13
2019-03-01T22:52:19.335Z,100978.50
2019-03-01T22:54:48.796Z,100972.77
2019-03-01T22:57:22.446Z,100967.52
2019-03-01T22:59:49.562Z,100971.39
2019-03-01T23:02:20.084Z,100967.84
2019-03-01T23:04:49.665Z,100967.02
2019-03-01T23:07:19.163Z,100964.59
2019-03-01T23:09:48.644Z,100959.41
2019-03-01T23:12:18.191Z,100958.90
2019-03-01T23:14:47.796Z,100957.27
2019-03-01T23:17:17.319Z,100953.23
2019-03-01T23:19:47.811Z,100952.41
2019-03-01T23:22:18.032Z,100959.02
2019-03-01T23:24:49.380Z,100959.34
2019-03-01T23:27:18.722Z,100955.27
2019-03-01T23:29:50.976Z,100952.02
2019-03-01T23:32:19.445Z,100946.84
2019-03-01T23:34:49.013Z,100945.23
2019-03-01T23:37:18.526Z,100940.03
2019-03-01T23:39:48.020Z,100939.78
2019-03-01T23:42:20.864Z,100935.70
2019-03-01T23:44:48.741Z,100936.57
2019-03-01T23:47:18.238Z,100932.53
2019-03-01T23:49:47.689Z,100931.16
2019-03-01T23:52:19.578Z,100936.89
2019-03-01T23:54:48.509Z,100930.03
2019-03-01T23:57:18.036Z,100931.08
2019-03-01T23:59:47.550Z,100939.56
